createdAt,value
2023-02-19T00:00:20.407Z,13.20
2023-02-19T00:02:48.230Z,13.20
2023-02-19T00:05:20.011Z,13.20
2023-02-19T00:07:51.594Z,13.20
2023-02-19T00:10:18.479Z,13.10
2023-02-19T00:12:47.890Z,13.20
2023-02-19T00:15:22.769Z,13.20
2023-02-19T00:17:54.148Z,13.20
2023-02-19T00:20:21.032Z,13.20
2023-02-19T00:22:50.562Z,13.10
2023-02-19T00:25:21.921Z,13.10
2023-02-19T00:31:52.159Z,13.20
2023-02-19T00:34:19.439Z,13.20
2023-02-19T00:36:46.339Z,13.20
2023-02-19T00:39:18.156Z,13.10
2023-02-19T00:41:50.532Z,13.10
2023-02-19T00:44:17.944Z,13.10
2023-02-19T00:46:50.476Z,13.10
2023-02-19T00:49:24.778Z,13.10
2023-02-19T00:51:57.108Z,13.10
2023-02-19T00:54:25.124Z,13.10
2023-02-19T00:56:52.096Z,13.20
2023-02-19T00:59:21.273Z,13.10
2023-02-19T01:01:49.555Z,13.10
2023-02-19T01:04:19.958Z,13.10
2023-02-19T01:06:48.732Z,13.10
2023-02-19T01:09:18.018Z,13.20
2023-02-19T01:11:46.942Z,13.20
2023-02-19T01:14:13.931Z,13.10
2023-02-19T01:16:42.898Z,13.10
2023-02-19T01:19:09.822Z,13.10
2023-02-19T01:21:39.969Z,13.10
2023-02-19T01:24:07.310Z,13.10
2023-02-19T01:26:38.693Z,13.10
2023-02-19T01:29:05.561Z,13.10
2023-02-19T01:31:35.161Z,13.10
2023-02-19T01:34:10.318Z,13.10
2023-02-19T01:36:42.055Z,13.20
2023-02-19T01:39:13.855Z,13.10
2023-02-19T01:41:44.310Z,13.10
2023-02-19T01:44:18.085Z,13.20
2023-02-19T01:46:48.429Z,13.10
2023-02-19T01:49:28.950Z,13.10
2023-02-19T01:52:21.148Z,13.20
2023-02-19T01:54:50.269Z,13.10
2023-02-19T01:57:26.664Z,13.10
2023-02-19T02:00:01.809Z,13.20
2023-02-19T02:02:43.370Z,13.20
2023-02-19T02:05:40.543Z,13.20
2023-02-19T02:08:27.073Z,13.20
2023-02-19T02:10:57.287Z,13.20
2023-02-19T02:13:26.965Z,13.20
2023-02-19T02:16:04.278Z,13.20
2023-02-19T02:18:40.215Z,13.10
2023-02-19T02:21:34.434Z,13.20
2023-02-19T02:24:49.265Z,13.20
2023-02-19T02:27:38.251Z,13.20
2023-02-19T02:30:24.419Z,13.10
2023-02-19T02:33:19.037Z,13.10
2023-02-19T02:36:12.865Z,13.10
2023-02-19T02:38:44.791Z,13.10
2023-02-19T02:41:16.520Z,13.10
2023-02-19T02:43:44.411Z,13.00
2023-02-19T02:46:26.309Z,13.00
2023-02-19T02:49:01.828Z,13.00
2023-02-19T02:51:52.606Z,13.00
2023-02-19T02:54:48.580Z,13.10
2023-02-19T02:57:19.959Z,12.90
2023-02-19T02:59:53.986Z,12.90
2023-02-19T03:02:31.410Z,12.90
2023-02-19T03:05:22.646Z,12.90
2023-02-19T03:08:09.965Z,12.90
2023-02-19T03:10:57.583Z,12.90
2023-02-19T03:13:55.676Z,12.90
2023-02-19T03:16:50.325Z,12.90
2023-02-19T03:19:27.364Z,12.90
2023-02-19T03:22:10.324Z,12.90
2023-02-19T03:25:09.662Z,12.90
2023-02-19T03:27:40.936Z,12.90
2023-02-19T03:30:24.100Z,12.90
2023-02-19T03:33:15.850Z,12.90
2023-02-19T03:35:55.640Z,12.90
2023-02-19T03:38:45.073Z,12.80
2023-02-19T03:41:33.642Z,12.90
2023-02-19T03:44:27.087Z,12.90
2023-02-19T03:47:09.331Z,12.90
2023-02-19T03:49:51.616Z,12.90
2023-02-19T03:52:46.995Z,12.90
2023-02-19T03:55:30.746Z,12.90
2023-02-19T03:58:28.939Z,12.80
2023-02-19T04:01:14.677Z,12.80
2023-02-19T04:04:15.627Z,12.70
2023-02-19T04:06:52.529Z,12.80
2023-02-19T04:09:22.469Z,12.80
2023-02-19T04:11:58.659Z,12.80
2023-02-19T04:14:35.145Z,12.80
2023-02-19T04:17:13.509Z,12.80
2023-02-19T04:19:43.125Z,12.80
2023-02-19T04:22:12.313Z,12.80
2023-02-19T04:24:49.190Z,12.70
2023-02-19T04:27:19.384Z,12.80
2023-02-19T04:29:48.621Z,12.70
2023-02-19T04:32:20.039Z,12.70
2023-02-19T04:34:46.945Z,12.70
2023-02-19T04:37:18.349Z,12.70
2023-02-19T04:39:51.987Z,12.70
2023-02-19T04:42:21.437Z,12.70
2023-02-19T04:44:50.572Z,12.70
2023-02-19T04:47:17.755Z,12.60
2023-02-19T04:49:45.338Z,12.70
2023-02-19T04:52:14.772Z,12.70
2023-02-19T04:54:46.327Z,12.70
2023-02-19T04:57:17.702Z,12.70
2023-02-19T04:59:48.142Z,12.70
2023-02-19T05:02:15.068Z,12.70
2023-02-19T05:04:46.810Z,12.80
2023-02-19T05:07:15.710Z,12.70
2023-02-19T05:09:44.752Z,12.70
2023-02-19T05:12:11.672Z,12.80
2023-02-19T05:14:43.248Z,12.80
2023-02-19T05:17:12.719Z,12.80
2023-02-19T05:19:41.753Z,12.80
2023-02-19T05:22:13.330Z,12.80
2023-02-19T05:24:42.577Z,12.80
2023-02-19T05:27:12.029Z,12.90
2023-02-19T05:29:38.915Z,12.90
2023-02-19T05:32:10.417Z,12.90
2023-02-19T05:34:42.037Z,12.90
2023-02-19T05:37:11.224Z,12.90
2023-02-19T05:39:38.203Z,12.80
2023-02-19T05:42:07.440Z,12.80
2023-02-19T05:44:38.962Z,12.80
2023-02-19T05:47:08.166Z,12.90
2023-02-19T05:49:34.971Z,12.90
2023-02-19T05:52:01.796Z,12.90
2023-02-19T05:54:32.172Z,12.90
2023-02-19T05:57:01.391Z,12.90
2023-02-19T05:59:30.777Z,12.90
2023-02-19T06:02:02.256Z,12.90
2023-02-19T06:04:31.382Z,12.90
2023-02-19T06:06:58.297Z,12.90
2023-02-19T06:09:27.820Z,12.90
2023-02-19T06:11:54.685Z,12.90
2023-02-19T06:14:23.633Z,12.90
2023-02-19T06:16:52.721Z,12.90
2023-02-19T06:19:24.251Z,12.90
2023-02-19T06:21:51.241Z,12.90
2023-02-19T06:24:18.071Z,12.90
2023-02-19T06:26:47.356Z,12.90
2023-02-19T06:29:17.084Z,12.90
2023-02-19T06:31:50.613Z,12.90
2023-02-19T06:34:17.624Z,12.90
2023-02-19T06:36:44.604Z,12.90
2023-02-19T06:39:13.847Z,12.90
2023-02-19T06:41:47.813Z,12.90
2023-02-19T06:44:17.043Z,12.90
2023-02-19T06:46:46.007Z,12.90
2023-02-19T06:49:15.338Z,12.90
2023-02-19T06:51:44.535Z,13.00
2023-02-19T06:54:11.414Z,12.90
2023-02-19T06:56:41.220Z,13.00
2023-02-19T06:59:12.904Z,12.90
2023-02-19T07:01:44.750Z,12.90
2023-02-19T07:04:12.231Z,13.00
2023-02-19T07:06:39.163Z,13.00
2023-02-19T07:09:09.728Z,13.00
2023-02-19T07:11:41.682Z,12.90
2023-02-19T07:14:15.627Z,12.90
2023-02-19T07:16:47.191Z,13.00
2023-02-19T07:19:21.542Z,12.90
2023-02-19T07:21:53.968Z,13.00
2023-02-19T07:24:21.509Z,12.90
2023-02-19T07:26:52.849Z,12.90
2023-02-19T07:29:19.717Z,12.90
2023-02-19T07:31:51.167Z,12.90
2023-02-19T07:34:20.877Z,12.90
2023-02-19T07:36:47.673Z,12.90
2023-02-19T07:39:16.863Z,12.90
2023-02-19T07:41:45.789Z,12.90
2023-02-19T07:44:27.910Z,12.80
2023-02-19T07:46:57.266Z,12.80
2023-02-19T07:49:26.524Z,12.80
2023-02-19T07:51:55.977Z,12.80
2023-02-19T07:54:25.103Z,12.80
2023-02-19T07:56:56.619Z,12.80
2023-02-19T07:59:30.162Z,12.80
2023-02-19T08:02:17.970Z,12.80
2023-02-19T08:04:47.685Z,12.80
2023-02-19T08:07:16.945Z,12.80
2023-02-19T08:09:43.766Z,12.80
2023-02-19T08:12:33.936Z,12.80
2023-02-19T08:15:05.672Z,12.80
2023-02-19T08:17:34.561Z,12.80
2023-02-19T08:20:06.618Z,12.80
2023-02-19T08:22:33.493Z,12.80
2023-02-19T08:25:00.320Z,12.80
2023-02-19T08:27:32.077Z,12.80
2023-02-19T08:29:59.086Z,12.80
2023-02-19T08:32:33.853Z,12.80
2023-02-19T08:35:03.326Z,12.80
2023-02-19T08:37:30.141Z,12.80
2023-02-19T08:39:57.037Z,12.70
2023-02-19T08:42:24.176Z,12.70
2023-02-19T08:44:56.266Z,12.70
2023-02-19T08:47:23.085Z,12.70
2023-02-19T08:49:52.143Z,12.70
2023-02-19T08:52:19.029Z,12.70
2023-02-19T08:54:50.491Z,12.70
2023-02-19T08:57:22.641Z,12.70
2023-02-19T08:59:49.498Z,12.70
2023-02-19T09:02:18.509Z,12.70
2023-02-19T09:04:47.954Z,12.80
2023-02-19T09:07:15.086Z,12.80
2023-02-19T09:09:42.102Z,12.90
2023-02-19T09:12:12.093Z,12.90
2023-02-19T09:14:41.698Z,13.00
2023-02-19T09:17:13.677Z,13.00
2023-02-19T09:19:43.609Z,13.00
2023-02-19T09:22:17.383Z,13.10
2023-02-19T09:24:48.572Z,13.10
2023-02-19T09:27:20.746Z,13.20
2023-02-19T09:29:47.801Z,13.30
2023-02-19T09:32:19.096Z,13.30
2023-02-19T09:34:46.314Z,13.30
2023-02-19T09:37:18.010Z,13.30
2023-02-19T09:39:47.230Z,13.40
2023-02-19T09:42:23.154Z,13.40
2023-02-19T09:44:58.129Z,13.40
2023-02-19T09:47:29.485Z,13.40
2023-02-19T09:50:06.318Z,13.40
2023-02-19T09:52:58.883Z,13.40
2023-02-19T09:55:38.955Z,13.30
2023-02-19T09:58:29.783Z,13.30
2023-02-19T10:01:02.287Z,13.30
2023-02-19T10:03:39.173Z,13.30
2023-02-19T10:06:12.361Z,13.30
2023-02-19T10:08:42.111Z,13.20
2023-02-19T10:11:13.000Z,13.30
2023-02-19T10:14:09.150Z,13.20
2023-02-19T10:16:42.308Z,13.30
2023-02-19T10:19:13.775Z,13.20
2023-02-19T10:21:42.770Z,13.20
2023-02-19T10:24:27.894Z,13.10
2023-02-19T10:26:57.906Z,13.10
2023-02-19T10:29:27.215Z,13.10
2023-02-19T10:32:18.705Z,13.10
2023-02-19T10:34:45.697Z,13.00
2023-02-19T10:37:18.594Z,13.00
2023-02-19T10:39:49.188Z,13.00
2023-02-19T10:42:25.961Z,13.10
2023-02-19T10:45:02.714Z,13.00
2023-02-19T10:47:33.119Z,13.00
2023-02-19T10:50:04.620Z,13.00
2023-02-19T10:52:36.590Z,13.00
2023-02-19T10:55:36.773Z,13.00
2023-02-19T10:58:42.315Z,13.00
2023-02-19T11:01:19.940Z,13.00
2023-02-19T11:04:10.688Z,13.10
2023-02-19T11:06:37.584Z,13.10
2023-02-19T11:09:22.139Z,13.00
2023-02-19T11:11:53.662Z,13.00
2023-02-19T11:14:28.461Z,13.00
2023-02-19T11:17:01.376Z,13.00
2023-02-19T11:19:42.806Z,13.00
2023-02-19T11:22:39.341Z,13.10
2023-02-19T11:25:17.173Z,13.10
2023-02-19T11:28:19.921Z,13.10
2023-02-19T11:30:54.109Z,13.20
2023-02-19T11:33:27.984Z,13.20
2023-02-19T11:36:20.022Z,13.30
2023-02-19T11:38:46.886Z,13.40
2023-02-19T11:41:24.114Z,13.50
2023-02-19T11:44:25.605Z,13.60
2023-02-19T11:47:29.208Z,13.70
2023-02-19T11:50:19.643Z,13.80
2023-02-19T11:53:13.253Z,13.80
2023-02-19T11:56:16.984Z,13.90
2023-02-19T11:59:04.833Z,13.90
2023-02-19T12:01:53.126Z,13.90
2023-02-19T12:05:02.089Z,14.00
2023-02-19T12:08:13.904Z,14.20
2023-02-19T12:11:14.022Z,14.40
2023-02-19T12:14:30.401Z,14.60
2023-02-19T12:17:33.133Z,14.80
2023-02-19T12:20:13.200Z,15.00
2023-02-19T12:23:50.790Z,15.10
2023-02-19T12:26:43.583Z,15.20
2023-02-19T12:29:49.663Z,15.20
2023-02-19T12:33:00.783Z,15.20
2023-02-19T12:35:38.128Z,15.10
2023-02-19T12:38:17.214Z,15.00
2023-02-19T12:40:50.634Z,14.90
2023-02-19T12:43:24.537Z,14.80
2023-02-19T12:46:02.621Z,14.70
2023-02-19T12:48:35.134Z,14.60
2023-02-19T12:51:26.288Z,14.50
2023-02-19T12:54:01.455Z,14.50
2023-02-19T12:56:47.418Z,14.40
2023-02-19T12:59:31.655Z,14.30
2023-02-19T13:02:39.158Z,14.30
2023-02-19T13:05:44.188Z,14.30
2023-02-19T13:08:26.834Z,14.30
2023-02-19T13:11:09.667Z,14.30
2023-02-19T13:13:47.896Z,14.30
2023-02-19T13:16:21.126Z,14.40
2023-02-19T13:19:05.109Z,14.40
2023-02-19T13:21:55.246Z,14.40
2023-02-19T13:24:33.547Z,14.50
2023-02-19T13:27:41.764Z,14.50
2023-02-19T13:30:48.468Z,14.50
2023-02-19T13:34:12.114Z,14.80
2023-02-19T13:36:42.094Z,15.00
2023-02-19T13:41:55.613Z,15.50
2023-02-19T13:44:29.317Z,15.90
2023-02-19T13:46:56.951Z,16.20
2023-02-19T13:49:33.745Z,16.40
2023-02-19T13:52:29.475Z,16.50
2023-02-19T13:55:46.989Z,16.40
2023-02-19T13:58:39.710Z,16.50
2023-02-19T14:01:13.919Z,16.40
2023-02-19T14:04:14.010Z,16.40
2023-02-19T14:07:05.564Z,16.20
2023-02-19T14:09:40.022Z,16.10
2023-02-19T14:12:10.177Z,15.90
2023-02-19T14:14:43.463Z,15.80
2023-02-19T14:17:10.201Z,15.70
2023-02-19T14:19:42.462Z,15.60
2023-02-19T14:22:49.472Z,15.50
2023-02-19T14:25:30.952Z,15.30
2023-02-19T14:28:45.853Z,15.20
2023-02-19T14:31:40.227Z,15.10
2023-02-19T14:34:22.770Z,15.00
2023-02-19T14:36:56.316Z,14.90
2023-02-19T14:39:46.936Z,14.80
2023-02-19T14:42:27.448Z,14.70
2023-02-19T14:45:06.269Z,14.70
2023-02-19T14:47:35.985Z,14.70
2023-02-19T14:50:34.948Z,14.70
2023-02-19T14:53:07.002Z,14.70
2023-02-19T14:55:42.686Z,14.80
2023-02-19T14:58:24.406Z,14.80
2023-02-19T15:00:51.425Z,14.80
2023-02-19T15:03:33.973Z,14.90
2023-02-19T15:06:19.418Z,15.00
2023-02-19T15:08:57.421Z,15.10
2023-02-19T15:11:29.855Z,15.20
2023-02-19T15:14:07.032Z,15.20
2023-02-19T15:16:36.548Z,15.20
2023-02-19T15:19:12.482Z,15.20
2023-02-19T15:21:47.939Z,15.10
2023-02-19T15:24:19.096Z,15.10
2023-02-19T15:26:51.654Z,15.10
2023-02-19T15:29:23.171Z,14.90
2023-02-19T15:32:02.174Z,14.90
2023-02-19T15:34:32.851Z,14.80
2023-02-19T15:37:13.009Z,14.80
2023-02-19T15:39:55.632Z,14.70
2023-02-19T15:42:31.075Z,14.60
2023-02-19T15:45:13.249Z,14.50
2023-02-19T15:47:53.464Z,14.50
2023-02-19T15:50:55.631Z,14.40
2023-02-19T15:53:29.587Z,14.30
2023-02-19T15:56:14.547Z,14.30
2023-02-19T15:59:13.661Z,14.20
2023-02-19T16:01:45.559Z,14.10
2023-02-19T16:04:17.312Z,14.10
2023-02-19T16:07:02.586Z,14.10
2023-02-19T16:09:39.473Z,14.00
2023-02-19T16:12:28.108Z,14.00
2023-02-19T16:14:58.582Z,14.00
2023-02-19T16:17:28.010Z,13.90
2023-02-19T16:20:03.364Z,13.90
2023-02-19T16:22:40.871Z,13.90
2023-02-19T16:25:37.357Z,13.90
2023-02-19T16:28:23.212Z,13.90
2023-02-19T16:31:06.809Z,13.80
2023-02-19T16:33:51.774Z,13.80
2023-02-19T16:36:41.861Z,13.70
2023-02-19T16:39:09.322Z,13.70
2023-02-19T16:41:48.411Z,13.70
2023-02-19T16:44:23.063Z,13.70
2023-02-19T16:46:54.670Z,13.60
2023-02-19T16:49:24.668Z,13.60
2023-02-19T16:51:52.240Z,13.60
2023-02-19T16:54:21.110Z,13.50
2023-02-19T16:56:50.099Z,13.50
2023-02-19T16:59:16.855Z,13.50
2023-02-19T17:01:46.315Z,13.50
2023-02-19T17:04:18.447Z,13.50
2023-02-19T17:06:49.141Z,13.40
2023-02-19T17:09:21.038Z,13.40
2023-02-19T17:11:50.465Z,13.30
2023-02-19T17:14:17.254Z,13.40
2023-02-19T17:16:44.126Z,13.40
2023-02-19T17:19:18.304Z,13.40
2023-02-19T17:21:46.944Z,13.30
2023-02-19T17:24:16.056Z,13.30
2023-02-19T17:26:45.427Z,13.30
2023-02-19T17:29:15.225Z,13.30
2023-02-19T17:31:47.766Z,13.30
2023-02-19T17:34:16.952Z,13.20
2023-02-19T17:36:45.492Z,13.30
2023-02-19T17:39:16.301Z,13.30
2023-02-19T17:41:43.450Z,13.20
2023-02-19T17:44:10.732Z,13.20
2023-02-19T17:46:39.877Z,13.20
2023-02-19T17:49:09.379Z,13.20
2023-02-19T17:51:36.580Z,13.20
2023-02-19T17:54:08.363Z,13.20
2023-02-19T17:56:35.795Z,13.20
2023-02-19T17:59:04.692Z,13.20
2023-02-19T18:01:33.607Z,13.20
2023-02-19T18:04:03.036Z,13.10
2023-02-19T18:06:30.430Z,13.20
2023-02-19T18:09:01.994Z,13.10
2023-02-19T18:11:30.969Z,13.10
2023-02-19T18:14:00.359Z,13.20
2023-02-19T18:16:31.745Z,13.10
2023-02-19T18:19:01.405Z,13.10
2023-02-19T18:21:30.767Z,13.10
2023-02-19T18:24:02.899Z,13.00
2023-02-19T18:26:29.822Z,13.10
2023-02-19T18:28:56.759Z,13.00
2023-02-19T18:31:23.708Z,13.00
2023-02-19T18:33:53.214Z,13.00
2023-02-19T18:36:20.119Z,13.00
2023-02-19T18:38:53.741Z,13.00
2023-02-19T18:41:24.362Z,12.90
2023-02-19T18:43:51.275Z,12.90
2023-02-19T18:46:21.198Z,12.90
2023-02-19T18:48:48.095Z,12.90
2023-02-19T18:51:17.051Z,12.90
2023-02-19T18:53:49.120Z,12.80
2023-02-19T18:56:16.550Z,12.80
2023-02-19T18:58:45.827Z,12.80
2023-02-19T19:01:13.938Z,12.80
2023-02-19T19:03:45.179Z,12.80
2023-02-19T19:06:12.042Z,12.80
2023-02-19T19:08:38.951Z,12.80
2023-02-19T19:11:09.223Z,12.80
2023-02-19T19:13:38.359Z,12.80
2023-02-19T19:16:05.425Z,12.70
2023-02-19T19:18:38.068Z,12.70
2023-02-19T19:21:09.645Z,12.70
2023-02-19T19:23:39.079Z,12.70
2023-02-19T19:26:08.523Z,12.70
2023-02-19T19:28:35.696Z,12.70
2023-02-19T19:31:05.569Z,12.70
2023-02-19T19:33:32.534Z,12.70
2023-02-19T19:36:04.259Z,12.70
2023-02-19T19:38:31.162Z,12.70
2023-02-19T19:40:58.017Z,12.70
2023-02-19T19:43:32.554Z,12.70
2023-02-19T19:46:08.518Z,12.70
2023-02-19T19:48:35.399Z,12.70
2023-02-19T19:51:04.944Z,12.70
2023-02-19T19:53:32.079Z,12.70
2023-02-19T19:56:01.106Z,12.70
2023-02-19T19:58:30.412Z,12.70
2023-02-19T20:01:02.087Z,12.70
2023-02-19T20:03:29.396Z,12.70
2023-02-19T20:05:57.180Z,12.70
2023-02-19T20:08:28.523Z,12.70
2023-02-19T20:10:57.511Z,12.70
2023-02-19T20:13:26.371Z,12.60
2023-02-19T20:15:55.426Z,12.70
2023-02-19T20:18:27.433Z,12.60
2023-02-19T20:20:54.326Z,12.60
2023-02-19T20:23:27.358Z,12.60
2023-02-19T20:25:58.888Z,12.60
2023-02-19T20:28:27.860Z,12.60
2023-02-19T20:30:54.961Z,12.60
2023-02-19T20:33:29.170Z,12.60
2023-02-19T20:35:56.971Z,12.60
2023-02-19T20:38:23.930Z,12.50
2023-02-19T20:40:53.319Z,12.50
2023-02-19T20:43:22.753Z,12.50
2023-02-19T20:45:54.027Z,12.50
2023-02-19T20:48:23.202Z,12.50
2023-02-19T20:50:50.068Z,12.40
2023-02-19T20:53:21.129Z,12.50
2023-02-19T20:55:47.996Z,12.40
2023-02-19T20:58:14.867Z,12.40
2023-02-19T21:00:41.742Z,12.40
2023-02-19T21:03:13.501Z,12.40
2023-02-19T21:05:42.922Z,12.40
2023-02-19T21:08:14.996Z,12.50
2023-02-19T21:10:42.025Z,12.40
2023-02-19T21:13:12.605Z,12.40
2023-02-19T21:15:42.039Z,12.40
2023-02-19T21:18:12.076Z,12.40
2023-02-19T21:20:38.904Z,12.40
2023-02-19T21:23:05.795Z,12.40
2023-02-19T21:25:34.716Z,12.40
2023-02-19T21:28:09.104Z,12.30
2023-02-19T21:31:41.689Z,12.30
2023-02-19T21:34:14.305Z,12.30
2023-02-19T21:36:46.767Z,12.30
2023-02-19T21:39:20.876Z,12.30
2023-02-19T21:41:50.314Z,12.30
2023-02-19T21:44:21.178Z,12.30
2023-02-19T21:46:48.597Z,12.30
2023-02-19T21:49:18.168Z,12.30
2023-02-19T21:51:50.188Z,12.30
2023-02-19T21:54:25.796Z,12.30
2023-02-19T21:56:53.963Z,12.30
2023-02-19T21:59:25.594Z,12.30
2023-02-19T22:01:57.024Z,12.30
2023-02-19T22:04:27.226Z,12.30
2023-02-19T22:07:01.803Z,12.30
2023-02-19T22:09:30.745Z,12.20
2023-02-19T22:11:57.524Z,12.30
2023-02-19T22:14:27.071Z,12.30
2023-02-19T22:16:53.962Z,12.30
2023-02-19T22:19:21.214Z,12.30
2023-02-19T22:21:50.325Z,12.30
2023-02-19T22:24:21.670Z,12.30
2023-02-19T22:26:55.953Z,12.30
2023-02-19T22:29:25.678Z,12.30
2023-02-19T22:31:52.941Z,12.20
2023-02-19T22:34:19.983Z,12.20
2023-02-19T22:36:54.205Z,12.20
2023-02-19T22:39:26.724Z,12.30
2023-02-19T22:41:58.392Z,12.20
2023-02-19T22:44:25.487Z,12.10
2023-02-19T22:46:56.926Z,12.10
2023-02-19T22:49:28.795Z,12.20
2023-02-19T22:52:03.968Z,12.10
2023-02-19T22:54:30.815Z,12.10
2023-02-19T22:57:00.251Z,12.10
2023-02-19T22:59:27.289Z,12.10
2023-02-19T23:01:54.593Z,12.10
2023-02-19T23:04:28.351Z,12.10
2023-02-19T23:06:55.326Z,12.10
2023-02-19T23:09:28.052Z,12.10
2023-02-19T23:12:10.248Z,12.10
2023-02-19T23:14:37.833Z,12.10
2023-02-19T23:17:09.246Z,12.00
2023-02-19T23:19:38.574Z,12.00
2023-02-19T23:22:08.245Z,12.00
2023-02-19T23:24:42.045Z,12.00
2023-02-19T23:27:13.619Z,12.00
2023-02-19T23:29:40.503Z,11.90
2023-02-19T23:32:12.118Z,12.00
2023-02-19T23:34:47.563Z,12.00
2023-02-19T23:37:15.324Z,12.00
2023-02-19T23:39:42.197Z,12.00
2023-02-19T23:42:20.758Z,12.00
2023-02-19T23:44:50.055Z,12.00
2023-02-19T23:47:20.086Z,12.00
2023-02-19T23:49:51.556Z,11.90
2023-02-19T23:52:20.739Z,11.90
2023-02-19T23:54:50.031Z,11.90
2023-02-19T23:57:19.358Z,11.90
2023-02-19T23:59:49.052Z,11.80
